sensor_id;sensor_type;location;lat;lon;timestamp;P1;durP1;ratioP1;P2;durP2;ratioP2
34072;SDS011;20346;52.702;16.886;2022-12-24T00:01:07;60.65;;;29.57;;
34072;SDS011;20346;52.702;16.886;2022-12-24T00:03:53;62.65;;;31.20;;
34072;SDS011;20346;52.702;16.886;2022-12-24T00:06:38;64.10;;;30.57;;
34072;SDS011;20346;52.702;16.886;2022-12-24T00:09:23;50.45;;;26.95;;
34072;SDS011;20346;52.702;16.886;2022-12-24T00:12:09;52.75;;;27.82;;
34072;SDS011;20346;52.702;16.886;2022-12-24T00:14:54;52.98;;;27.65;;
34072;SDS011;20346;52.702;16.886;2022-12-24T00:17:39;46.30;;;26.68;;
34072;SDS011;20346;52.702;16.886;2022-12-24T00:20:25;45.48;;;26.02;;
34072;SDS011;20346;52.702;16.886;2022-12-24T00:23:10;46.85;;;25.72;;
34072;SDS011;20346;52.702;16.886;2022-12-24T00:25:55;49.45;;;27.15;;
34072;SDS011;20346;52.702;16.886;2022-12-24T00:28:40;47.65;;;25.27;;
34072;SDS011;20346;52.702;16.886;2022-12-24T00:31:25;43.83;;;24.80;;
34072;SDS011;20346;52.702;16.886;2022-12-24T00:34:10;46.77;;;24.65;;
34072;SDS011;20346;52.702;16.886;2022-12-24T00:36:55;45.23;;;24.37;;
34072;SDS011;20346;52.702;16.886;2022-12-24T00:39:41;47.15;;;23.90;;
34072;SDS011;20346;52.702;16.886;2022-12-24T00:42:26;48.92;;;25.92;;
34072;SDS011;20346;52.702;16.886;2022-12-24T00:45:11;48.68;;;25.62;;
34072;SDS011;20346;52.702;16.886;2022-12-24T00:47:56;50.03;;;24.77;;
34072;SDS011;20346;52.702;16.886;2022-12-24T00:50:41;50.17;;;23.50;;
34072;SDS011;20346;52.702;16.886;2022-12-24T00:53:26;43.98;;;23.30;;
34072;SDS011;20346;52.702;16.886;2022-12-24T00:56:11;45.45;;;23.32;;
34072;SDS011;20346;52.702;16.886;2022-12-24T00:58:56;47.20;;;23.57;;
34072;SDS011;20346;52.702;16.886;2022-12-24T01:01:42;42.73;;;22.65;;
34072;SDS011;20346;52.702;16.886;2022-12-24T01:04:27;42.10;;;22.80;;
34072;SDS011;20346;52.702;16.886;2022-12-24T01:07:30;40.33;;;22.27;;
34072;SDS011;20346;52.702;16.886;2022-12-24T01:10:16;42.27;;;22.52;;
34072;SDS011;20346;52.702;16.886;2022-12-24T01:13:03;40.12;;;22.65;;
34072;SDS011;20346;52.702;16.886;2022-12-24T01:15:48;45.80;;;24.75;;
34072;SDS011;20346;52.702;16.886;2022-12-24T01:18:33;41.35;;;23.15;;
34072;SDS011;20346;52.702;16.886;2022-12-24T01:21:18;39.33;;;22.17;;
34072;SDS011;20346;52.702;16.886;2022-12-24T01:24:03;43.80;;;23.00;;
34072;SDS011;20346;52.702;16.886;2022-12-24T01:26:50;40.88;;;22.15;;
34072;SDS011;20346;52.702;16.886;2022-12-24T01:29:35;41.00;;;22.95;;
34072;SDS011;20346;52.702;16.886;2022-12-24T01:32:20;42.95;;;21.12;;
34072;SDS011;20346;52.702;16.886;2022-12-24T01:35:06;45.80;;;22.55;;
34072;SDS011;20346;52.702;16.886;2022-12-24T01:40:37;37.53;;;20.65;;
34072;SDS011;20346;52.702;16.886;2022-12-24T01:43:42;36.03;;;20.35;;
34072;SDS011;20346;52.702;16.886;2022-12-24T01:46:28;37.35;;;20.48;;
34072;SDS011;20346;52.702;16.886;2022-12-24T01:49:16;33.60;;;20.17;;
34072;SDS011;20346;52.702;16.886;2022-12-24T01:52:04;34.80;;;19.65;;
34072;SDS011;20346;52.702;16.886;2022-12-24T01:54:53;40.50;;;21.07;;
34072;SDS011;20346;52.702;16.886;2022-12-24T01:57:43;35.25;;;20.62;;
34072;SDS011;20346;52.702;16.886;2022-12-24T02:00:34;32.67;;;19.92;;
34072;SDS011;20346;52.702;16.886;2022-12-24T02:03:19;35.33;;;21.70;;
34072;SDS011;20346;52.702;16.886;2022-12-24T02:06:04;33.47;;;20.93;;
34072;SDS011;20346;52.702;16.886;2022-12-24T02:08:51;33.80;;;19.17;;
34072;SDS011;20346;52.702;16.886;2022-12-24T02:11:36;35.55;;;19.42;;
34072;SDS011;20346;52.702;16.886;2022-12-24T02:14:26;30.62;;;18.02;;
34072;SDS011;20346;52.702;16.886;2022-12-24T02:27:16;27.62;;;15.38;;
34072;SDS011;20346;52.702;16.886;2022-12-24T02:30:07;29.10;;;16.65;;
34072;SDS011;20346;52.702;16.886;2022-12-24T02:33:17;23.80;;;15.43;;
34072;SDS011;20346;52.702;16.886;2022-12-24T02:36:26;29.25;;;16.07;;
34072;SDS011;20346;52.702;16.886;2022-12-24T02:39:17;27.37;;;15.93;;
34072;SDS011;20346;52.702;16.886;2022-12-24T02:42:08;28.07;;;16.87;;
34072;SDS011;20346;52.702;16.886;2022-12-24T02:45:04;24.95;;;16.93;;
34072;SDS011;20346;52.702;16.886;2022-12-24T02:47:49;28.52;;;17.00;;
34072;SDS011;20346;52.702;16.886;2022-12-24T02:50:36;28.32;;;16.65;;
34072;SDS011;20346;52.702;16.886;2022-12-24T02:53:21;31.27;;;17.95;;
34072;SDS011;20346;52.702;16.886;2022-12-24T02:56:16;30.90;;;18.80;;
34072;SDS011;20346;52.702;16.886;2022-12-24T02:59:18;32.08;;;19.07;;
34072;SDS011;20346;52.702;16.886;2022-12-24T03:02:26;30.15;;;18.23;;
34072;SDS011;20346;52.702;16.886;2022-12-24T03:08:58;24.65;;;16.17;;
34072;SDS011;20346;52.702;16.886;2022-12-24T03:11:26;21.60;;;15.25;;
34072;SDS011;20346;52.702;16.886;2022-12-24T03:14:11;27.65;;;15.43;;
34072;SDS011;20346;52.702;16.886;2022-12-24T03:19:43;24.23;;;15.58;;
34072;SDS011;20346;52.702;16.886;2022-12-24T03:22:31;32.95;;;17.25;;
34072;SDS011;20346;52.702;16.886;2022-12-24T03:25:18;31.33;;;17.12;;
34072;SDS011;20346;52.702;16.886;2022-12-24T03:28:05;28.67;;;17.52;;
34072;SDS011;20346;52.702;16.886;2022-12-24T03:30:53;29.50;;;17.42;;
34072;SDS011;20346;52.702;16.886;2022-12-24T03:33:39;28.75;;;17.87;;
34072;SDS011;20346;52.702;16.886;2022-12-24T03:36:24;27.58;;;17.15;;
34072;SDS011;20346;52.702;16.886;2022-12-24T03:39:09;29.98;;;18.75;;
34072;SDS011;20346;52.702;16.886;2022-12-24T03:41:54;32.35;;;18.30;;
34072;SDS011;20346;52.702;16.886;2022-12-24T03:44:39;33.92;;;19.42;;
34072;SDS011;20346;52.702;16.886;2022-12-24T03:47:24;32.93;;;18.57;;
34072;SDS011;20346;52.702;16.886;2022-12-24T03:50:09;37.80;;;19.67;;
34072;SDS011;20346;52.702;16.886;2022-12-24T03:52:54;32.00;;;18.40;;
34072;SDS011;20346;52.702;16.886;2022-12-24T03:55:40;31.02;;;18.85;;
34072;SDS011;20346;52.702;16.886;2022-12-24T03:58:25;27.90;;;18.00;;
34072;SDS011;20346;52.702;16.886;2022-12-24T04:01:10;32.40;;;18.92;;
34072;SDS011;20346;52.702;16.886;2022-12-24T04:03:55;29.98;;;18.15;;
34072;SDS011;20346;52.702;16.886;2022-12-24T04:06:40;30.82;;;19.15;;
34072;SDS011;20346;52.702;16.886;2022-12-24T04:09:25;31.65;;;19.00;;
34072;SDS011;20346;52.702;16.886;2022-12-24T04:12:10;28.85;;;18.40;;
34072;SDS011;20346;52.702;16.886;2022-12-24T04:14:55;30.15;;;17.73;;
34072;SDS011;20346;52.702;16.886;2022-12-24T04:17:41;26.00;;;16.37;;
34072;SDS011;20346;52.702;16.886;2022-12-24T04:20:26;28.23;;;16.45;;
34072;SDS011;20346;52.702;16.886;2022-12-24T04:23:11;29.48;;;17.23;;
34072;SDS011;20346;52.702;16.886;2022-12-24T04:26:05;26.10;;;15.78;;
34072;SDS011;20346;52.702;16.886;2022-12-24T04:28:48;34.13;;;16.12;;
34072;SDS011;20346;52.702;16.886;2022-12-24T04:31:33;24.30;;;14.73;;
34072;SDS011;20346;52.702;16.886;2022-12-24T04:34:18;23.77;;;15.10;;
34072;SDS011;20346;52.702;16.886;2022-12-24T04:37:03;21.93;;;14.00;;
34072;SDS011;20346;52.702;16.886;2022-12-24T04:39:48;23.62;;;14.43;;
34072;SDS011;20346;52.702;16.886;2022-12-24T04:42:33;24.63;;;13.93;;
34072;SDS011;20346;52.702;16.886;2022-12-24T04:45:19;26.85;;;14.50;;
34072;SDS011;20346;52.702;16.886;2022-12-24T04:48:04;21.27;;;13.70;;
34072;SDS011;20346;52.702;16.886;2022-12-24T04:50:50;19.60;;;12.37;;
34072;SDS011;20346;52.702;16.886;2022-12-24T04:53:35;20.43;;;12.80;;
34072;SDS011;20346;52.702;16.886;2022-12-24T04:56:22;20.25;;;12.47;;
34072;SDS011;20346;52.702;16.886;2022-12-24T04:59:10;21.87;;;12.33;;
34072;SDS011;20346;52.702;16.886;2022-12-24T05:01:55;21.33;;;12.00;;
34072;SDS011;20346;52.702;16.886;2022-12-24T05:04:40;20.80;;;12.68;;
34072;SDS011;20346;52.702;16.886;2022-12-24T05:07:25;19.77;;;12.98;;
34072;SDS011;20346;52.702;16.886;2022-12-24T05:10:10;19.25;;;12.00;;
34072;SDS011;20346;52.702;16.886;2022-12-24T05:12:55;21.37;;;12.28;;
34072;SDS011;20346;52.702;16.886;2022-12-24T05:15:40;20.05;;;12.53;;
34072;SDS011;20346;52.702;16.886;2022-12-24T05:18:27;19.75;;;10.90;;
34072;SDS011;20346;52.702;16.886;2022-12-24T05:21:13;20.77;;;12.30;;
34072;SDS011;20346;52.702;16.886;2022-12-24T05:24:02;22.90;;;13.13;;
34072;SDS011;20346;52.702;16.886;2022-12-24T05:27:06;20.32;;;12.00;;
34072;SDS011;20346;52.702;16.886;2022-12-24T05:29:50;18.82;;;11.28;;
34072;SDS011;20346;52.702;16.886;2022-12-24T05:32:36;20.60;;;11.78;;
34072;SDS011;20346;52.702;16.886;2022-12-24T05:35:21;21.55;;;12.40;;
34072;SDS011;20346;52.702;16.886;2022-12-24T05:38:06;20.40;;;11.93;;
34072;SDS011;20346;52.702;16.886;2022-12-24T05:40:51;19.42;;;12.05;;
34072;SDS011;20346;52.702;16.886;2022-12-24T05:43:37;19.87;;;11.95;;
34072;SDS011;20346;52.702;16.886;2022-12-24T05:46:22;18.07;;;10.93;;
34072;SDS011;20346;52.702;16.886;2022-12-24T05:49:08;17.90;;;11.50;;
34072;SDS011;20346;52.702;16.886;2022-12-24T05:51:53;19.98;;;11.33;;
34072;SDS011;20346;52.702;16.886;2022-12-24T05:54:38;18.57;;;10.68;;
34072;SDS011;20346;52.702;16.886;2022-12-24T05:57:24;19.10;;;11.80;;
34072;SDS011;20346;52.702;16.886;2022-12-24T06:00:09;23.50;;;11.75;;
34072;SDS011;20346;52.702;16.886;2022-12-24T06:02:54;20.88;;;11.85;;
34072;SDS011;20346;52.702;16.886;2022-12-24T06:05:40;19.42;;;10.98;;
34072;SDS011;20346;52.702;16.886;2022-12-24T06:08:25;19.30;;;11.20;;
34072;SDS011;20346;52.702;16.886;2022-12-24T06:11:12;17.27;;;11.00;;
34072;SDS011;20346;52.702;16.886;2022-12-24T06:14:00;17.98;;;11.05;;
34072;SDS011;20346;52.702;16.886;2022-12-24T06:16:45;19.90;;;10.75;;
34072;SDS011;20346;52.702;16.886;2022-12-24T06:19:30;18.52;;;10.08;;
34072;SDS011;20346;52.702;16.886;2022-12-24T06:22:15;18.17;;;10.10;;
34072;SDS011;20346;52.702;16.886;2022-12-24T06:25:00;17.90;;;10.95;;
34072;SDS011;20346;52.702;16.886;2022-12-24T06:27:45;16.42;;;10.28;;
34072;SDS011;20346;52.702;16.886;2022-12-24T06:30:30;17.82;;;10.45;;
34072;SDS011;20346;52.702;16.886;2022-12-24T06:33:16;17.75;;;11.15;;
34072;SDS011;20346;52.702;16.886;2022-12-24T06:36:01;23.40;;;11.93;;
34072;SDS011;20346;52.702;16.886;2022-12-24T06:38:54;19.77;;;11.25;;
34072;SDS011;20346;52.702;16.886;2022-12-24T06:41:39;22.37;;;10.32;;
34072;SDS011;20346;52.702;16.886;2022-12-24T06:44:24;17.12;;;10.55;;
34072;SDS011;20346;52.702;16.886;2022-12-24T06:47:09;17.70;;;10.85;;
34072;SDS011;20346;52.702;16.886;2022-12-24T06:49:54;19.37;;;11.60;;
34072;SDS011;20346;52.702;16.886;2022-12-24T06:52:40;16.23;;;10.03;;
34072;SDS011;20346;52.702;16.886;2022-12-24T06:55:25;21.40;;;10.40;;
34072;SDS011;20346;52.702;16.886;2022-12-24T06:58:10;17.98;;;9.75;;
34072;SDS011;20346;52.702;16.886;2022-12-24T07:00:55;21.25;;;11.48;;
34072;SDS011;20346;52.702;16.886;2022-12-24T07:03:40;17.62;;;11.03;;
34072;SDS011;20346;52.702;16.886;2022-12-24T07:06:27;21.73;;;12.30;;
34072;SDS011;20346;52.702;16.886;2022-12-24T07:09:12;21.60;;;12.82;;
34072;SDS011;20346;52.702;16.886;2022-12-24T07:11:58;25.62;;;14.10;;
34072;SDS011;20346;52.702;16.886;2022-12-24T07:14:43;22.40;;;12.78;;
34072;SDS011;20346;52.702;16.886;2022-12-24T07:17:28;24.90;;;13.55;;
34072;SDS011;20346;52.702;16.886;2022-12-24T07:20:13;25.57;;;12.30;;
34072;SDS011;20346;52.702;16.886;2022-12-24T07:22:58;19.48;;;11.28;;
34072;SDS011;20346;52.702;16.886;2022-12-24T07:25:43;14.07;;;9.18;;
34072;SDS011;20346;52.702;16.886;2022-12-24T07:28:28;16.02;;;9.55;;
34072;SDS011;20346;52.702;16.886;2022-12-24T07:31:13;23.15;;;10.78;;
34072;SDS011;20346;52.702;16.886;2022-12-24T07:33:59;19.92;;;10.30;;
34072;SDS011;20346;52.702;16.886;2022-12-24T07:36:43;18.55;;;11.22;;
34072;SDS011;20346;52.702;16.886;2022-12-24T07:39:28;19.32;;;11.57;;
34072;SDS011;20346;52.702;16.886;2022-12-24T07:42:13;16.32;;;10.05;;
34072;SDS011;20346;52.702;16.886;2022-12-24T07:44:59;17.73;;;11.48;;
34072;SDS011;20346;52.702;16.886;2022-12-24T07:47:43;22.52;;;13.55;;
34072;SDS011;20346;52.702;16.886;2022-12-24T07:50:28;26.68;;;14.90;;
34072;SDS011;20346;52.702;16.886;2022-12-24T07:53:14;30.70;;;17.98;;
34072;SDS011;20346;52.702;16.886;2022-12-24T07:55:59;23.35;;;14.30;;
34072;SDS011;20346;52.702;16.886;2022-12-24T07:58:44;25.30;;;14.18;;
34072;SDS011;20346;52.702;16.886;2022-12-24T08:01:29;29.07;;;15.90;;
34072;SDS011;20346;52.702;16.886;2022-12-24T08:04:14;26.15;;;15.75;;
34072;SDS011;20346;52.702;16.886;2022-12-24T08:06:59;39.13;;;24.02;;
34072;SDS011;20346;52.702;16.886;2022-12-24T08:09:46;46.28;;;25.92;;
34072;SDS011;20346;52.702;16.886;2022-12-24T08:12:31;24.90;;;17.02;;
34072;SDS011;20346;52.702;16.886;2022-12-24T08:15:17;21.85;;;14.40;;
34072;SDS011;20346;52.702;16.886;2022-12-24T08:18:01;23.55;;;13.60;;
34072;SDS011;20346;52.702;16.886;2022-12-24T08:20:47;24.32;;;13.10;;
34072;SDS011;20346;52.702;16.886;2022-12-24T08:23:32;22.70;;;14.33;;
34072;SDS011;20346;52.702;16.886;2022-12-24T08:26:17;22.45;;;14.05;;
34072;SDS011;20346;52.702;16.886;2022-12-24T08:29:03;24.12;;;14.00;;
34072;SDS011;20346;52.702;16.886;2022-12-24T08:31:49;24.05;;;14.87;;
34072;SDS011;20346;52.702;16.886;2022-12-24T08:34:34;25.60;;;15.35;;
34072;SDS011;20346;52.702;16.886;2022-12-24T08:37:19;26.97;;;14.87;;
34072;SDS011;20346;52.702;16.886;2022-12-24T08:40:04;24.15;;;14.63;;
34072;SDS011;20346;52.702;16.886;2022-12-24T08:42:50;27.85;;;14.68;;
34072;SDS011;20346;52.702;16.886;2022-12-24T08:45:36;23.67;;;14.98;;
34072;SDS011;20346;52.702;16.886;2022-12-24T08:48:22;23.27;;;13.75;;
34072;SDS011;20346;52.702;16.886;2022-12-24T08:51:07;29.00;;;15.50;;
34072;SDS011;20346;52.702;16.886;2022-12-24T08:53:53;27.93;;;16.17;;
34072;SDS011;20346;52.702;16.886;2022-12-24T08:56:39;25.30;;;16.27;;
34072;SDS011;20346;52.702;16.886;2022-12-24T08:59:24;26.05;;;15.08;;
34072;SDS011;20346;52.702;16.886;2022-12-24T09:02:10;24.45;;;16.27;;
34072;SDS011;20346;52.702;16.886;2022-12-24T09:04:55;26.68;;;17.00;;
34072;SDS011;20346;52.702;16.886;2022-12-24T09:07:40;27.85;;;17.17;;
34072;SDS011;20346;52.702;16.886;2022-12-24T09:10:24;28.07;;;16.50;;
34072;SDS011;20346;52.702;16.886;2022-12-24T09:13:09;32.00;;;19.30;;
34072;SDS011;20346;52.702;16.886;2022-12-24T09:15:54;26.82;;;18.55;;
34072;SDS011;20346;52.702;16.886;2022-12-24T09:18:39;27.50;;;18.35;;
34072;SDS011;20346;52.702;16.886;2022-12-24T09:21:25;28.07;;;17.80;;
34072;SDS011;20346;52.702;16.886;2022-12-24T09:24:09;24.92;;;17.23;;
34072;SDS011;20346;52.702;16.886;2022-12-24T09:26:54;31.12;;;18.45;;
34072;SDS011;20346;52.702;16.886;2022-12-24T09:29:40;31.35;;;18.95;;
34072;SDS011;20346;52.702;16.886;2022-12-24T09:32:25;29.67;;;17.73;;
34072;SDS011;20346;52.702;16.886;2022-12-24T09:35:10;27.77;;;18.82;;
34072;SDS011;20346;52.702;16.886;2022-12-24T09:37:55;30.60;;;19.48;;
34072;SDS011;20346;52.702;16.886;2022-12-24T09:40:46;36.10;;;19.62;;
34072;SDS011;20346;52.702;16.886;2022-12-24T09:43:35;32.75;;;20.05;;
34072;SDS011;20346;52.702;16.886;2022-12-24T09:46:25;29.63;;;19.90;;
34072;SDS011;20346;52.702;16.886;2022-12-24T09:49:17;33.55;;;20.82;;
34072;SDS011;20346;52.702;16.886;2022-12-24T09:52:11;33.00;;;20.05;;
34072;SDS011;20346;52.702;16.886;2022-12-24T09:55:06;33.08;;;20.85;;
34072;SDS011;20346;52.702;16.886;2022-12-24T09:58:01;33.00;;;20.43;;
34072;SDS011;20346;52.702;16.886;2022-12-24T10:00:48;34.55;;;20.05;;
34072;SDS011;20346;52.702;16.886;2022-12-24T10:03:35;34.58;;;22.77;;
34072;SDS011;20346;52.702;16.886;2022-12-24T10:06:23;41.70;;;24.98;;
34072;SDS011;20346;52.702;16.886;2022-12-24T10:09:46;32.42;;;22.05;;
34072;SDS011;20346;52.702;16.886;2022-12-24T10:13:49;32.08;;;20.35;;
34072;SDS011;20346;52.702;16.886;2022-12-24T10:16:28;35.10;;;20.50;;
34072;SDS011;20346;52.702;16.886;2022-12-24T10:19:43;38.63;;;21.85;;
34072;SDS011;20346;52.702;16.886;2022-12-24T10:29:21;36.83;;;20.75;;
34072;SDS011;20346;52.702;16.886;2022-12-24T10:32:21;32.73;;;19.45;;
34072;SDS011;20346;52.702;16.886;2022-12-24T10:35:33;31.90;;;18.60;;
34072;SDS011;20346;52.702;16.886;2022-12-24T10:38:06;32.25;;;20.40;;
34072;SDS011;20346;52.702;16.886;2022-12-24T10:40:53;31.68;;;20.20;;
34072;SDS011;20346;52.702;16.886;2022-12-24T10:43:40;30.62;;;19.67;;
34072;SDS011;20346;52.702;16.886;2022-12-24T10:46:34;31.07;;;19.45;;
34072;SDS011;20346;52.702;16.886;2022-12-24T10:49:25;35.78;;;21.35;;
34072;SDS011;20346;52.702;16.886;2022-12-24T10:52:28;34.48;;;20.52;;
34072;SDS011;20346;52.702;16.886;2022-12-24T10:58:12;34.10;;;21.90;;
34072;SDS011;20346;52.702;16.886;2022-12-24T11:01:00;42.25;;;23.98;;
34072;SDS011;20346;52.702;16.886;2022-12-24T11:03:45;39.15;;;22.52;;
34072;SDS011;20346;52.702;16.886;2022-12-24T11:09:56;29.82;;;18.10;;
34072;SDS011;20346;52.702;16.886;2022-12-24T11:12:47;37.35;;;22.42;;
34072;SDS011;20346;52.702;16.886;2022-12-24T11:15:32;36.17;;;22.87;;
34072;SDS011;20346;52.702;16.886;2022-12-24T11:18:18;47.55;;;28.40;;
34072;SDS011;20346;52.702;16.886;2022-12-24T11:21:03;31.80;;;19.27;;
34072;SDS011;20346;52.702;16.886;2022-12-24T11:23:50;28.25;;;17.82;;
34072;SDS011;20346;52.702;16.886;2022-12-24T11:26:41;34.67;;;19.42;;
34072;SDS011;20346;52.702;16.886;2022-12-24T11:29:27;30.82;;;18.30;;
34072;SDS011;20346;52.702;16.886;2022-12-24T11:32:21;33.40;;;19.63;;
34072;SDS011;20346;52.702;16.886;2022-12-24T11:35:07;31.05;;;18.50;;
34072;SDS011;20346;52.702;16.886;2022-12-24T11:40:56;26.52;;;16.60;;
34072;SDS011;20346;52.702;16.886;2022-12-24T11:43:57;27.62;;;17.15;;
34072;SDS011;20346;52.702;16.886;2022-12-24T11:46:44;25.48;;;17.32;;
34072;SDS011;20346;52.702;16.886;2022-12-24T11:49:30;29.95;;;18.62;;
34072;SDS011;20346;52.702;16.886;2022-12-24T11:52:16;30.75;;;19.12;;
34072;SDS011;20346;52.702;16.886;2022-12-24T11:58:10;33.98;;;19.32;;
34072;SDS011;20346;52.702;16.886;2022-12-24T12:04:24;28.17;;;17.17;;
34072;SDS011;20346;52.702;16.886;2022-12-24T12:07:29;28.67;;;17.17;;
34072;SDS011;20346;52.702;16.886;2022-12-24T12:13:12;23.20;;;15.98;;
34072;SDS011;20346;52.702;16.886;2022-12-24T12:19:06;31.42;;;17.82;;
34072;SDS011;20346;52.702;16.886;2022-12-24T12:21:53;37.75;;;20.82;;
34072;SDS011;20346;52.702;16.886;2022-12-24T12:24:39;32.58;;;18.77;;
34072;SDS011;20346;52.702;16.886;2022-12-24T12:27:30;34.05;;;17.90;;
34072;SDS011;20346;52.702;16.886;2022-12-24T12:30:23;31.75;;;17.20;;
34072;SDS011;20346;52.702;16.886;2022-12-24T12:36:25;25.20;;;16.30;;
34072;SDS011;20346;52.702;16.886;2022-12-24T12:39:14;29.75;;;16.97;;
34072;SDS011;20346;52.702;16.886;2022-12-24T12:45:24;25.48;;;15.43;;
34072;SDS011;20346;52.702;16.886;2022-12-24T12:51:56;35.17;;;19.40;;
34072;SDS011;20346;52.702;16.886;2022-12-24T13:04:54;29.42;;;16.62;;
34072;SDS011;20346;52.702;16.886;2022-12-24T13:17:17;24.82;;;16.00;;
34072;SDS011;20346;52.702;16.886;2022-12-24T13:20:27;25.37;;;15.80;;
34072;SDS011;20346;52.702;16.886;2022-12-24T13:23:19;23.77;;;16.73;;
34072;SDS011;20346;52.702;16.886;2022-12-24T13:26:11;33.05;;;18.30;;
34072;SDS011;20346;52.702;16.886;2022-12-24T13:44:24;33.73;;;18.65;;
34072;SDS011;20346;52.702;16.886;2022-12-24T13:50:22;30.50;;;18.85;;
34072;SDS011;20346;52.702;16.886;2022-12-24T13:53:22;26.85;;;18.48;;
34072;SDS011;20346;52.702;16.886;2022-12-24T13:56:25;28.05;;;17.60;;
34072;SDS011;20346;52.702;16.886;2022-12-24T14:02:17;29.98;;;17.77;;
34072;SDS011;20346;52.702;16.886;2022-12-24T14:05:05;27.95;;;17.32;;
34072;SDS011;20346;52.702;16.886;2022-12-24T14:07:54;33.25;;;18.77;;
34072;SDS011;20346;52.702;16.886;2022-12-24T14:10:42;30.12;;;17.17;;
34072;SDS011;20346;52.702;16.886;2022-12-24T14:16:51;28.67;;;17.98;;
34072;SDS011;20346;52.702;16.886;2022-12-24T14:19:40;31.30;;;17.60;;
34072;SDS011;20346;52.702;16.886;2022-12-24T14:22:37;27.35;;;17.70;;
34072;SDS011;20346;52.702;16.886;2022-12-24T14:25:26;29.15;;;16.95;;
34072;SDS011;20346;52.702;16.886;2022-12-24T14:28:13;29.27;;;17.30;;
34072;SDS011;20346;52.702;16.886;2022-12-24T14:31:03;24.12;;;16.80;;
34072;SDS011;20346;52.702;16.886;2022-12-24T14:33:51;28.55;;;17.75;;
34072;SDS011;20346;52.702;16.886;2022-12-24T14:36:51;30.17;;;17.82;;
34072;SDS011;20346;52.702;16.886;2022-12-24T14:39:40;26.45;;;17.30;;
34072;SDS011;20346;52.702;16.886;2022-12-24T14:45:50;27.30;;;15.25;;
34072;SDS011;20346;52.702;16.886;2022-12-24T14:54:58;21.50;;;14.85;;
34072;SDS011;20346;52.702;16.886;2022-12-24T14:57:43;21.48;;;15.45;;
34072;SDS011;20346;52.702;16.886;2022-12-24T15:00:28;25.00;;;14.75;;
34072;SDS011;20346;52.702;16.886;2022-12-24T15:03:14;21.37;;;14.50;;
34072;SDS011;20346;52.702;16.886;2022-12-24T15:06:03;24.65;;;15.40;;
34072;SDS011;20346;52.702;16.886;2022-12-24T15:08:51;22.00;;;15.48;;
34072;SDS011;20346;52.702;16.886;2022-12-24T15:11:37;39.30;;;21.75;;
34072;SDS011;20346;52.702;16.886;2022-12-24T15:14:22;55.40;;;26.37;;
34072;SDS011;20346;52.702;16.886;2022-12-24T15:17:11;46.48;;;23.07;;
34072;SDS011;20346;52.702;16.886;2022-12-24T15:19:58;53.25;;;25.80;;
34072;SDS011;20346;52.702;16.886;2022-12-24T15:22:45;47.75;;;22.82;;
34072;SDS011;20346;52.702;16.886;2022-12-24T15:25:35;40.43;;;20.40;;
34072;SDS011;20346;52.702;16.886;2022-12-24T15:28:22;35.15;;;18.48;;
34072;SDS011;20346;52.702;16.886;2022-12-24T15:31:09;27.73;;;15.48;;
34072;SDS011;20346;52.702;16.886;2022-12-24T15:33:59;21.45;;;14.10;;
34072;SDS011;20346;52.702;16.886;2022-12-24T15:36:44;22.62;;;14.85;;
34072;SDS011;20346;52.702;16.886;2022-12-24T15:39:29;24.43;;;15.03;;
34072;SDS011;20346;52.702;16.886;2022-12-24T15:42:16;31.33;;;18.50;;
34072;SDS011;20346;52.702;16.886;2022-12-24T15:45:11;25.75;;;15.35;;
34072;SDS011;20346;52.702;16.886;2022-12-24T15:47:59;20.02;;;13.50;;
34072;SDS011;20346;52.702;16.886;2022-12-24T15:50:55;23.25;;;13.65;;
34072;SDS011;20346;52.702;16.886;2022-12-24T15:53:42;28.40;;;14.78;;
34072;SDS011;20346;52.702;16.886;2022-12-24T15:56:35;32.03;;;16.50;;
34072;SDS011;20346;52.702;16.886;2022-12-24T15:59:33;31.75;;;16.25;;
34072;SDS011;20346;52.702;16.886;2022-12-24T16:08:23;28.90;;;15.40;;
34072;SDS011;20346;52.702;16.886;2022-12-24T16:17:01;34.35;;;15.20;;
34072;SDS011;20346;52.702;16.886;2022-12-24T16:19:47;43.85;;;20.10;;
34072;SDS011;20346;52.702;16.886;2022-12-24T16:22:35;47.15;;;24.82;;
34072;SDS011;20346;52.702;16.886;2022-12-24T16:25:24;52.85;;;27.50;;
34072;SDS011;20346;52.702;16.886;2022-12-24T16:28:11;50.55;;;28.02;;
34072;SDS011;20346;52.702;16.886;2022-12-24T16:30:57;45.98;;;27.27;;
34072;SDS011;20346;52.702;16.886;2022-12-24T16:33:42;57.60;;;30.37;;
34072;SDS011;20346;52.702;16.886;2022-12-24T16:36:28;57.05;;;30.97;;
34072;SDS011;20346;52.702;16.886;2022-12-24T16:42:07;48.85;;;27.62;;
34072;SDS011;20346;52.702;16.886;2022-12-24T16:45:11;50.28;;;26.00;;
34072;SDS011;20346;52.702;16.886;2022-12-24T16:47:59;47.93;;;21.12;;
34072;SDS011;20346;52.702;16.886;2022-12-24T16:50:44;36.93;;;20.27;;
34072;SDS011;20346;52.702;16.886;2022-12-24T16:53:29;41.80;;;20.35;;
34072;SDS011;20346;52.702;16.886;2022-12-24T16:56:14;45.38;;;20.55;;
34072;SDS011;20346;52.702;16.886;2022-12-24T16:58:59;54.73;;;21.80;;
34072;SDS011;20346;52.702;16.886;2022-12-24T17:01:44;42.70;;;20.57;;
34072;SDS011;20346;52.702;16.886;2022-12-24T17:04:30;47.53;;;21.12;;
34072;SDS011;20346;52.702;16.886;2022-12-24T17:07:18;45.63;;;21.42;;
34072;SDS011;20346;52.702;16.886;2022-12-24T17:10:04;50.50;;;23.47;;
34072;SDS011;20346;52.702;16.886;2022-12-24T17:12:55;49.40;;;25.77;;
34072;SDS011;20346;52.702;16.886;2022-12-24T17:15:40;47.95;;;24.92;;
34072;SDS011;20346;52.702;16.886;2022-12-24T17:18:25;61.50;;;31.02;;
34072;SDS011;20346;52.702;16.886;2022-12-24T17:21:10;61.80;;;29.45;;
34072;SDS011;20346;52.702;16.886;2022-12-24T17:23:56;81.10;;;31.70;;
34072;SDS011;20346;52.702;16.886;2022-12-24T17:26:41;82.62;;;33.85;;
34072;SDS011;20346;52.702;16.886;2022-12-24T17:29:26;70.85;;;30.45;;
34072;SDS011;20346;52.702;16.886;2022-12-24T17:32:11;71.40;;;29.52;;
34072;SDS011;20346;52.702;16.886;2022-12-24T17:34:57;70.80;;;26.73;;
34072;SDS011;20346;52.702;16.886;2022-12-24T17:37:43;63.42;;;26.42;;
34072;SDS011;20346;52.702;16.886;2022-12-24T17:40:28;56.53;;;24.15;;
34072;SDS011;20346;52.702;16.886;2022-12-24T17:43:13;52.05;;;23.15;;
34072;SDS011;20346;52.702;16.886;2022-12-24T17:45:58;51.02;;;22.10;;
34072;SDS011;20346;52.702;16.886;2022-12-24T17:48:49;45.45;;;21.77;;
34072;SDS011;20346;52.702;16.886;2022-12-24T17:51:35;43.00;;;19.70;;
34072;SDS011;20346;52.702;16.886;2022-12-24T17:54:20;39.75;;;20.08;;
34072;SDS011;20346;52.702;16.886;2022-12-24T17:57:05;39.38;;;22.25;;
34072;SDS011;20346;52.702;16.886;2022-12-24T17:59:50;36.45;;;21.65;;
34072;SDS011;20346;52.702;16.886;2022-12-24T18:02:36;38.95;;;21.75;;
34072;SDS011;20346;52.702;16.886;2022-12-24T18:05:21;38.65;;;21.48;;
34072;SDS011;20346;52.702;16.886;2022-12-24T18:08:06;40.60;;;21.00;;
34072;SDS011;20346;52.702;16.886;2022-12-24T18:10:51;34.98;;;20.95;;
34072;SDS011;20346;52.702;16.886;2022-12-24T18:13:36;34.13;;;21.37;;